createdAt,value
2022-10-04T00:00:24.660Z,5.77
2022-10-04T00:03:25.631Z,4.42
2022-10-04T00:05:58.698Z,5.37
2022-10-04T00:08:35.058Z,4.73
2022-10-04T00:11:07.551Z,4.27
2022-10-04T00:13:38.729Z,4.57
2022-10-04T00:16:16.626Z,5.03
2022-10-04T00:18:46.612Z,4.83
2022-10-04T00:21:16.221Z,4.03
2022-10-04T00:23:48.849Z,4.43
2022-10-04T00:26:58.740Z,4.90
2022-10-04T00:29:35.902Z,5.17
2022-10-04T00:32:29.651Z,4.87
2022-10-04T00:35:01.825Z,3.80
2022-10-04T00:37:56.956Z,4.70
2022-10-04T00:40:28.788Z,4.67
2022-10-04T00:42:59.702Z,4.93
2022-10-04T00:45:34.065Z,4.50
2022-10-04T00:48:27.756Z,4.30
2022-10-04T00:51:04.827Z,5.30
2022-10-04T00:53:47.205Z,4.40
2022-10-04T00:56:23.957Z,4.57
2022-10-04T00:59:26.507Z,4.40
2022-10-04T01:02:02.146Z,4.13
2022-10-04T01:04:45.977Z,4.13
2022-10-04T01:07:18.577Z,4.25
2022-10-04T01:09:53.356Z,3.30
2022-10-04T01:12:44.412Z,3.73
2022-10-04T01:15:22.994Z,3.93
2022-10-04T01:18:27.196Z,3.40
2022-10-04T01:21:00.154Z,4.03
2022-10-04T01:23:44.381Z,3.63
2022-10-04T01:26:41.569Z,3.53
2022-10-04T01:29:14.858Z,3.57
2022-10-04T01:31:46.279Z,3.27
2022-10-04T01:34:19.150Z,4.57
2022-10-04T01:36:50.872Z,3.87
2022-10-04T01:39:22.724Z,3.77
2022-10-04T01:41:57.796Z,3.63
2022-10-04T01:44:31.511Z,3.10
2022-10-04T01:47:04.714Z,3.50
2022-10-04T01:49:38.660Z,3.60
2022-10-04T01:52:10.694Z,4.17
2022-10-04T01:54:43.729Z,3.77
2022-10-04T01:57:17.769Z,3.73
2022-10-04T01:59:52.664Z,3.27
2022-10-04T02:02:27.053Z,4.07
2022-10-04T02:04:58.275Z,3.27
2022-10-04T02:07:32.685Z,3.10
2022-10-04T02:10:08.974Z,3.67
2022-10-04T02:12:43.668Z,3.80
2022-10-04T02:15:18.137Z,2.90
2022-10-04T02:17:48.336Z,3.80
2022-10-04T02:20:21.111Z,3.33
2022-10-04T02:22:55.880Z,3.30
2022-10-04T02:25:26.471Z,3.53
2022-10-04T02:27:57.633Z,3.07
2022-10-04T02:30:26.519Z,3.03
2022-10-04T02:32:59.939Z,2.70
2022-10-04T02:35:35.516Z,3.27
2022-10-04T02:38:10.654Z,3.07
2022-10-04T02:40:47.684Z,2.80
2022-10-04T02:43:20.933Z,2.80
2022-10-04T02:45:55.216Z,2.60
2022-10-04T02:51:16.004Z,2.60
2022-10-04T02:53:51.569Z,3.07
2022-10-04T02:56:22.483Z,3.10
2022-10-04T02:58:51.886Z,2.70
2022-10-04T03:01:27.560Z,2.67
2022-10-04T03:03:58.185Z,3.50
2022-10-04T03:06:32.828Z,3.33
2022-10-04T03:09:04.999Z,3.20
2022-10-04T03:11:37.414Z,2.93
2022-10-04T03:14:14.319Z,3.00
2022-10-04T03:16:45.146Z,3.30
2022-10-04T03:19:16.704Z,3.20
2022-10-04T03:21:49.403Z,3.33
2022-10-04T03:24:20.675Z,3.70
2022-10-04T03:26:52.776Z,3.47
2022-10-04T03:29:27.012Z,3.33
2022-10-04T03:31:57.648Z,3.80
2022-10-04T03:34:32.077Z,4.07
2022-10-04T03:37:02.807Z,3.53
2022-10-04T03:39:34.472Z,3.83
2022-10-04T03:42:08.838Z,3.53
2022-10-04T03:44:38.278Z,3.70
2022-10-04T03:47:11.757Z,3.20
2022-10-04T03:49:44.481Z,3.60
2022-10-04T03:52:22.907Z,4.07
2022-10-04T03:54:53.548Z,4.07
2022-10-04T03:57:22.942Z,3.97
2022-10-04T03:59:52.764Z,4.17
2022-10-04T04:02:32.881Z,4.27
2022-10-04T04:05:12.912Z,4.17
2022-10-04T04:07:46.736Z,4.23
2022-10-04T04:10:22.626Z,4.30
2022-10-04T04:12:56.448Z,3.43
2022-10-04T04:15:30.982Z,3.63
2022-10-04T04:18:03.612Z,5.23
2022-10-04T04:20:36.572Z,4.40
2022-10-04T04:23:19.380Z,4.70
2022-10-04T04:25:50.966Z,4.80
2022-10-04T04:28:26.741Z,4.00
2022-10-04T04:31:00.543Z,4.37
2022-10-04T04:33:33.847Z,4.00
2022-10-04T04:36:10.920Z,4.60
2022-10-04T04:38:59.858Z,3.60
2022-10-04T04:41:34.339Z,3.77
2022-10-04T04:44:03.741Z,4.30
2022-10-04T04:46:33.399Z,3.60
2022-10-04T04:49:04.515Z,3.80
2022-10-04T04:51:34.168Z,3.60
2022-10-04T04:54:06.671Z,3.10
2022-10-04T04:56:36.338Z,3.50
2022-10-04T04:59:08.217Z,2.93
2022-10-04T05:01:45.342Z,4.13
2022-10-04T05:04:21.637Z,3.73
2022-10-04T05:07:02.472Z,3.60
2022-10-04T05:09:34.325Z,4.77
2022-10-04T05:12:10.544Z,2.80
2022-10-04T05:14:45.418Z,3.10
2022-10-04T05:17:20.861Z,3.70
2022-10-04T05:19:50.763Z,3.40
2022-10-04T05:22:25.283Z,3.40
2022-10-04T05:24:58.697Z,3.67
2022-10-04T05:27:36.813Z,2.93
2022-10-04T05:30:17.719Z,3.07
2022-10-04T05:32:58.136Z,2.87
2022-10-04T05:35:30.072Z,3.60
2022-10-04T05:38:12.880Z,3.13
2022-10-04T05:40:56.516Z,3.70
2022-10-04T05:43:31.789Z,3.17
2022-10-04T05:46:17.955Z,3.13
2022-10-04T05:48:52.642Z,3.30
2022-10-04T05:51:24.246Z,3.27
2022-10-04T05:53:54.161Z,3.23
2022-10-04T05:57:05.552Z,3.70
2022-10-04T05:59:51.345Z,5.03
2022-10-04T06:02:36.490Z,9.07
2022-10-04T06:05:15.222Z,4.80
2022-10-04T06:07:52.674Z,4.83
2022-10-04T06:10:47.347Z,3.83
2022-10-04T06:13:30.481Z,4.13
2022-10-04T06:16:10.030Z,4.57
2022-10-04T06:19:12.911Z,7.33
2022-10-04T06:22:01.321Z,6.63
2022-10-04T06:24:33.247Z,3.77
2022-10-04T06:27:10.839Z,7.43
2022-10-04T06:29:45.530Z,10.33
2022-10-04T06:32:39.194Z,5.33
2022-10-04T06:35:35.425Z,5.43
2022-10-04T06:38:36.184Z,3.93
2022-10-04T06:41:18.071Z,3.93
2022-10-04T06:44:28.201Z,4.70
2022-10-04T06:47:04.918Z,3.93
2022-10-04T06:49:46.064Z,4.07
2022-10-04T06:52:31.135Z,3.70
2022-10-04T06:55:36.703Z,3.67
2022-10-04T06:58:37.966Z,3.87
2022-10-04T07:01:19.176Z,3.83
2022-10-04T07:03:53.222Z,3.50
2022-10-04T07:08:56.640Z,3.10
2022-10-04T07:11:29.631Z,3.30
2022-10-04T07:14:05.208Z,4.00
2022-10-04T07:16:43.111Z,4.10
2022-10-04T07:19:31.315Z,3.30
2022-10-04T07:22:14.741Z,2.83
2022-10-04T07:25:04.343Z,2.60
2022-10-04T07:27:42.102Z,2.87
2022-10-04T07:30:15.432Z,3.83
2022-10-04T07:32:49.260Z,4.93
2022-10-04T07:35:33.272Z,4.23
2022-10-04T07:38:10.313Z,3.00
2022-10-04T07:40:43.086Z,3.53
2022-10-04T07:43:19.753Z,2.70
2022-10-04T07:45:49.616Z,2.77
2022-10-04T07:48:24.253Z,3.63
2022-10-04T07:51:04.879Z,3.10
2022-10-04T07:53:42.334Z,3.57
2022-10-04T07:56:18.520Z,3.13
2022-10-04T07:58:53.265Z,2.83
2022-10-04T08:01:33.355Z,3.13
2022-10-04T08:04:25.908Z,2.20
2022-10-04T08:06:59.306Z,2.87
2022-10-04T08:09:42.067Z,4.22
2022-10-04T08:12:23.855Z,5.13
2022-10-04T08:15:09.244Z,2.93
2022-10-04T08:17:48.507Z,2.93
2022-10-04T08:20:35.678Z,3.00
2022-10-04T08:23:47.987Z,2.10
2022-10-04T08:26:29.430Z,2.90
2022-10-04T08:29:34.405Z,2.87
2022-10-04T08:34:52.848Z,3.47
2022-10-04T08:37:35.299Z,3.07
2022-10-04T08:40:42.751Z,2.87
2022-10-04T08:44:11.159Z,2.63
2022-10-04T08:47:07.257Z,2.70
2022-10-04T08:50:03.179Z,1.85
2022-10-04T08:53:10.813Z,1.70
2022-10-04T08:55:54.967Z,2.07
2022-10-04T08:58:52.530Z,2.08
2022-10-04T09:01:44.465Z,2.37
2022-10-04T09:04:39.742Z,2.17
2022-10-04T09:07:35.970Z,1.70
2022-10-04T09:10:28.824Z,1.50
2022-10-04T09:13:17.067Z,1.60
2022-10-04T09:15:58.758Z,1.67
2022-10-04T09:18:48.283Z,1.60
2022-10-04T09:21:39.160Z,1.47
2022-10-04T09:24:37.256Z,1.60
2022-10-04T09:27:50.034Z,1.53
2022-10-04T09:30:19.738Z,1.47
2022-10-04T09:33:25.418Z,1.03
2022-10-04T09:36:15.638Z,1.03
2022-10-04T09:39:30.329Z,0.90
2022-10-04T09:42:27.619Z,1.25
2022-10-04T09:45:26.963Z,2.77
2022-10-04T09:48:15.748Z,1.20
2022-10-04T09:51:10.146Z,1.30
2022-10-04T09:53:51.347Z,2.00
2022-10-04T09:56:53.395Z,2.37
2022-10-04T10:00:07.152Z,2.80
2022-10-04T10:03:16.969Z,1.60
2022-10-04T10:06:29.011Z,1.17
2022-10-04T10:09:11.788Z,1.60
2022-10-04T10:12:12.008Z,1.70
2022-10-04T10:15:07.645Z,1.80
2022-10-04T10:17:44.592Z,1.47
2022-10-04T10:20:41.250Z,3.50
2022-10-04T10:23:43.502Z,2.13
2022-10-04T10:26:32.906Z,2.23
2022-10-04T10:29:42.465Z,1.60
2022-10-04T10:32:32.937Z,1.77
2022-10-04T10:35:45.744Z,1.70
2022-10-04T10:38:38.864Z,1.77
2022-10-04T10:41:39.201Z,2.60
2022-10-04T10:44:29.284Z,2.17
2022-10-04T10:47:15.507Z,1.80
2022-10-04T10:50:13.379Z,2.33
2022-10-04T10:53:23.450Z,3.50
2022-10-04T10:56:31.900Z,1.30
2022-10-04T10:59:36.484Z,2.70
2022-10-04T11:02:49.777Z,5.20
2022-10-04T11:06:00.927Z,1.90
2022-10-04T11:09:00.480Z,2.00
2022-10-04T11:12:03.746Z,1.43
2022-10-04T11:14:50.850Z,2.07
2022-10-04T11:17:55.361Z,2.15
2022-10-04T11:23:53.113Z,2.20
2022-10-04T11:27:04.961Z,2.17
2022-10-04T11:30:08.971Z,1.83
2022-10-04T11:33:09.380Z,1.80
2022-10-04T11:36:04.805Z,2.00
2022-10-04T11:39:14.823Z,1.73
2022-10-04T11:41:51.810Z,2.00
2022-10-04T11:44:55.054Z,1.90
2022-10-04T11:47:42.559Z,2.20
2022-10-04T11:50:38.810Z,2.27
2022-10-04T11:53:33.094Z,1.90
2022-10-04T11:56:29.417Z,1.63
2022-10-04T11:59:17.841Z,1.53
2022-10-04T12:02:34.412Z,1.90
2022-10-04T12:05:31.919Z,2.07
2022-10-04T12:08:19.037Z,2.07
2022-10-04T12:11:18.963Z,2.13
2022-10-04T12:14:01.665Z,1.43
2022-10-04T12:16:56.046Z,1.93
2022-10-04T12:19:51.769Z,2.47
2022-10-04T12:22:45.091Z,2.47
2022-10-04T12:25:46.802Z,2.13
2022-10-04T12:28:55.257Z,2.17
2022-10-04T12:31:29.821Z,2.50
2022-10-04T12:34:14.421Z,2.30
2022-10-04T12:37:00.350Z,2.70
2022-10-04T12:39:59.069Z,3.73
2022-10-04T12:42:39.128Z,3.40
2022-10-04T12:45:40.683Z,4.43
2022-10-04T12:48:22.803Z,3.33
2022-10-04T12:51:04.699Z,3.63
2022-10-04T12:53:47.056Z,2.43
2022-10-04T12:56:32.574Z,1.83
2022-10-04T12:59:15.534Z,2.57
2022-10-04T13:01:56.568Z,2.60
2022-10-04T13:04:35.592Z,2.93
2022-10-04T13:07:23.182Z,4.10
2022-10-04T13:10:23.512Z,2.53
2022-10-04T13:13:17.032Z,4.17
2022-10-04T13:18:53.649Z,2.07
2022-10-04T13:22:01.249Z,2.37
2022-10-04T13:24:54.483Z,2.83
2022-10-04T13:27:33.612Z,2.17
2022-10-04T13:30:15.558Z,2.80
2022-10-04T13:32:52.281Z,2.87
2022-10-04T13:35:26.128Z,1.73
2022-10-04T13:38:18.590Z,2.40
2022-10-04T13:41:01.409Z,1.97
2022-10-04T13:43:53.795Z,2.33
2022-10-04T13:46:35.299Z,1.73
2022-10-04T13:49:18.072Z,2.20
2022-10-04T13:52:20.752Z,2.27
2022-10-04T13:55:19.479Z,2.00
2022-10-04T13:57:57.620Z,2.33
2022-10-04T14:00:47.375Z,2.90
2022-10-04T14:03:40.473Z,2.30
2022-10-04T14:06:37.114Z,2.10
2022-10-04T14:09:30.449Z,2.10
2022-10-04T14:12:32.867Z,2.97
2022-10-04T14:15:30.369Z,2.05
2022-10-04T14:18:37.275Z,2.30
2022-10-04T14:21:40.974Z,3.40
2022-10-04T14:24:57.900Z,2.67
2022-10-04T14:27:54.855Z,2.33
2022-10-04T14:30:30.298Z,3.77
2022-10-04T14:33:17.412Z,6.33
2022-10-04T14:35:53.871Z,8.13
2022-10-04T14:38:56.783Z,9.57
2022-10-04T14:41:52.283Z,4.93
2022-10-04T14:45:11.171Z,11.07
2022-10-04T14:48:21.748Z,6.63
2022-10-04T14:51:04.345Z,6.70
2022-10-04T14:53:41.125Z,8.03
2022-10-04T14:56:34.963Z,6.43
2022-10-04T14:59:21.819Z,4.17
2022-10-04T15:02:37.493Z,2.70
2022-10-04T15:05:31.370Z,3.97
2022-10-04T15:08:26.172Z,5.13
2022-10-04T15:10:58.244Z,5.63
2022-10-04T15:13:35.136Z,6.10
2022-10-04T15:16:15.464Z,4.77
2022-10-04T15:18:52.297Z,5.87
2022-10-04T15:21:42.043Z,4.85
2022-10-04T15:24:31.726Z,4.80
2022-10-04T15:27:49.843Z,4.63
2022-10-04T15:30:50.085Z,4.37
2022-10-04T15:33:29.005Z,4.93
2022-10-04T15:36:27.399Z,5.87
2022-10-04T15:39:04.353Z,4.73
2022-10-04T15:41:45.976Z,5.40
2022-10-04T15:44:42.597Z,4.67
2022-10-04T15:47:21.476Z,5.37
2022-10-04T15:50:02.733Z,4.80
2022-10-04T15:53:17.498Z,5.00
2022-10-04T15:56:12.048Z,5.53
2022-10-04T15:58:55.729Z,9.63
2022-10-04T16:01:54.350Z,12.63
2022-10-04T16:04:56.956Z,10.13
2022-10-04T16:07:55.175Z,12.63
2022-10-04T16:10:30.909Z,10.27
2022-10-04T16:13:23.040Z,7.20
2022-10-04T16:16:26.006Z,5.50
2022-10-04T16:19:09.895Z,10.97
2022-10-04T16:21:51.329Z,9.45
2022-10-04T16:24:41.135Z,6.30
2022-10-04T16:27:42.877Z,7.17
2022-10-04T16:30:26.901Z,5.23
2022-10-04T16:33:12.264Z,5.17
2022-10-04T16:38:25.094Z,4.17
2022-10-04T16:41:27.894Z,4.17
2022-10-04T16:44:01.117Z,3.30
2022-10-04T16:46:37.475Z,3.63
2022-10-04T16:49:25.662Z,4.10
2022-10-04T16:52:08.667Z,4.65
2022-10-04T16:55:03.614Z,4.73
2022-10-04T16:57:32.379Z,5.20
2022-10-04T17:00:31.756Z,4.53
2022-10-04T17:03:14.363Z,4.60
2022-10-04T17:06:12.431Z,4.70
2022-10-04T17:09:01.938Z,5.13
2022-10-04T17:11:45.951Z,4.93
2022-10-04T17:14:32.432Z,4.93
2022-10-04T17:17:15.002Z,5.83
2022-10-04T17:19:52.843Z,8.50
2022-10-04T17:22:43.439Z,9.67
2022-10-04T17:25:31.507Z,11.90
2022-10-04T17:28:23.227Z,10.97
2022-10-04T17:30:59.039Z,11.57
2022-10-04T17:33:42.264Z,13.07
2022-10-04T17:36:34.111Z,12.17
2022-10-04T17:39:23.657Z,11.70
2022-10-04T17:42:15.727Z,9.73
2022-10-04T17:45:23.571Z,9.30
2022-10-04T17:48:23.621Z,8.57
2022-10-04T17:51:20.871Z,7.70
2022-10-04T18:11:28.974Z,8.50
2022-10-04T18:14:04.311Z,8.43
2022-10-04T18:16:52.485Z,7.90
2022-10-04T18:19:44.084Z,8.70
2022-10-04T18:22:18.884Z,8.07
2022-10-04T18:25:08.972Z,7.90
2022-10-04T18:27:54.164Z,8.13
2022-10-04T18:30:33.579Z,8.87
2022-10-04T18:33:33.097Z,9.23
2022-10-04T18:36:15.575Z,8.60
2022-10-04T18:39:03.104Z,8.10
2022-10-04T18:41:55.676Z,8.93
2022-10-04T18:44:44.837Z,8.43
2022-10-04T18:47:31.621Z,8.37
2022-10-04T18:50:31.942Z,7.50
2022-10-04T18:53:44.280Z,8.67
2022-10-04T18:56:34.286Z,9.37
2022-10-04T18:59:49.158Z,7.80
2022-10-04T19:02:35.280Z,8.57
2022-10-04T19:11:48.335Z,6.60
2022-10-04T19:14:32.640Z,6.53
2022-10-04T19:17:15.845Z,6.93
2022-10-04T19:20:03.714Z,6.50
2022-10-04T19:22:53.309Z,6.20
2022-10-04T19:25:57.232Z,6.47
2022-10-04T19:28:35.519Z,6.40
2022-10-04T19:31:13.278Z,6.23
2022-10-04T19:33:53.146Z,6.47
2022-10-04T19:36:32.679Z,5.97
2022-10-04T19:39:16.005Z,6.33
2022-10-04T19:41:54.313Z,6.57
2022-10-04T19:44:41.845Z,6.23
2022-10-04T19:47:24.665Z,6.15
2022-10-04T19:50:04.230Z,5.93
2022-10-04T19:52:43.019Z,6.90
2022-10-04T19:55:24.513Z,6.03
2022-10-04T19:58:01.636Z,6.23
2022-10-04T20:00:32.638Z,6.33
2022-10-04T20:03:01.541Z,6.40
2022-10-04T20:05:34.468Z,6.63
2022-10-04T20:08:07.190Z,6.33
2022-10-04T20:10:37.312Z,5.87
2022-10-04T20:13:20.755Z,6.80
2022-10-04T20:15:53.115Z,6.33
2022-10-04T20:18:58.828Z,6.80
2022-10-04T20:21:32.305Z,6.57
2022-10-04T20:24:03.970Z,6.80
2022-10-04T20:26:55.838Z,7.20
2022-10-04T20:30:06.398Z,7.30
2022-10-04T20:32:58.067Z,7.10
2022-10-04T20:36:00.858Z,5.90
2022-10-04T20:39:06.244Z,7.27
2022-10-04T20:42:19.659Z,7.77
2022-10-04T20:44:54.929Z,6.63
2022-10-04T20:47:42.880Z,7.13
2022-10-04T20:50:31.072Z,8.07
2022-10-04T20:53:13.002Z,7.00
2022-10-04T20:55:43.691Z,6.80
2022-10-04T20:58:34.585Z,6.67
2022-10-04T21:01:16.261Z,7.63
2022-10-04T21:03:44.970Z,7.00
2022-10-04T21:06:13.859Z,7.10
2022-10-04T21:08:42.334Z,6.83
2022-10-04T21:11:20.128Z,7.40
2022-10-04T21:13:55.796Z,8.03
2022-10-04T21:16:42.614Z,7.53
2022-10-04T21:19:47.163Z,7.10
2022-10-04T21:22:36.398Z,6.95
2022-10-04T21:25:31.426Z,7.43
2022-10-04T21:28:34.016Z,7.23
2022-10-04T21:31:05.651Z,7.43
2022-10-04T21:33:36.212Z,7.57
2022-10-04T21:36:05.978Z,8.70
2022-10-04T21:38:37.264Z,8.37
2022-10-04T21:41:06.401Z,8.10
2022-10-04T21:43:37.922Z,9.13
2022-10-04T21:46:07.316Z,7.90
2022-10-04T21:48:36.965Z,7.90
2022-10-04T21:51:08.123Z,8.13
2022-10-04T21:53:36.711Z,7.00
2022-10-04T21:56:07.044Z,7.50
2022-10-04T21:58:35.597Z,7.20
2022-10-04T22:01:04.798Z,6.97
2022-10-04T22:03:35.480Z,7.77
2022-10-04T22:06:04.155Z,7.60
2022-10-04T22:08:32.623Z,8.00
2022-10-04T22:11:01.186Z,7.67
2022-10-04T22:13:29.682Z,7.53
2022-10-04T22:15:58.177Z,7.20
2022-10-04T22:18:26.723Z,7.67
2022-10-04T22:20:55.197Z,7.03
2022-10-04T22:23:26.475Z,7.30
2022-10-04T22:25:55.816Z,7.40
2022-10-04T22:28:27.457Z,7.70
2022-10-04T22:30:56.752Z,7.03
2022-10-04T22:33:33.445Z,7.60
2022-10-04T22:36:12.453Z,8.00
2022-10-04T22:38:41.440Z,6.80
2022-10-04T22:41:11.537Z,7.47
2022-10-04T22:43:40.192Z,7.83
2022-10-04T22:46:15.371Z,6.30
2022-10-04T22:48:46.328Z,8.20
2022-10-04T22:51:15.365Z,6.80
2022-10-04T22:53:46.560Z,6.90
2022-10-04T22:56:15.652Z,7.40
2022-10-04T22:58:44.163Z,6.73
2022-10-04T23:01:19.322Z,7.30
2022-10-04T23:03:49.097Z,7.83
2022-10-04T23:06:17.716Z,7.07
2022-10-04T23:08:46.200Z,7.30
2022-10-04T23:11:14.750Z,7.33
2022-10-04T23:13:43.260Z,8.07
2022-10-04T23:16:16.073Z,8.53
2022-10-04T23:18:44.899Z,7.90
2022-10-04T23:21:21.572Z,8.23
2022-10-04T23:23:52.789Z,6.77
2022-10-04T23:26:25.085Z,7.37
2022-10-04T23:28:54.358Z,7.70
2022-10-04T23:31:25.753Z,7.63
2022-10-04T23:33:56.634Z,8.03
2022-10-04T23:36:25.306Z,8.37
2022-10-04T23:39:00.397Z,8.30
2022-10-04T23:41:29.353Z,7.80
2022-10-04T23:43:57.871Z,8.17
2022-10-04T23:46:29.748Z,8.47
2022-10-04T23:48:58.209Z,7.77
2022-10-04T23:51:27.564Z,8.00
2022-10-04T23:53:56.357Z,8.37
2022-10-04T23:56:29.104Z,7.87
2022-10-04T23:58:59.523Z,7.83
